sensor_id;sensor_type;location;lat;lon;timestamp;pressure;altitude;pressure_sealevel;temperature;humidity
23635;BME280;11994;51.038;16.974;2023-02-22T00:01:11;100215.33;;;7.63;86.06
23635;BME280;11994;51.038;16.974;2023-02-22T00:03:49;100215.02;;;7.59;86.04
23635;BME280;11994;51.038;16.974;2023-02-22T00:06:16;100214.40;;;7.53;86.15
23635;BME280;11994;51.038;16.974;2023-02-22T00:08:42;100214.59;;;7.50;86.10
23635;BME280;11994;51.038;16.974;2023-02-22T00:11:07;100218.45;;;7.48;86.08
23635;BME280;11994;51.038;16.974;2023-02-22T00:13:32;100216.73;;;7.46;86.14
23635;BME280;11994;51.038;16.974;2023-02-22T00:15:58;100226.85;;;7.43;86.29
23635;BME280;11994;51.038;16.974;2023-02-22T00:18:27;100230.05;;;7.38;86.08
23635;BME280;11994;51.038;16.974;2023-02-22T00:20:53;100236.36;;;7.33;86.21
23635;BME280;11994;51.038;16.974;2023-02-22T00:23:20;100235.37;;;7.27;86.28
23635;BME280;11994;51.038;16.974;2023-02-22T00:25:46;100239.23;;;7.23;86.30
23635;BME280;11994;51.038;16.974;2023-02-22T00:28:12;100242.58;;;7.19;86.53
23635;BME280;11994;51.038;16.974;2023-02-22T00:30:39;100240.66;;;7.21;86.48
23635;BME280;11994;51.038;16.974;2023-02-22T00:33:08;100240.11;;;7.23;86.56
23635;BME280;11994;51.038;16.974;2023-02-22T00:35:33;100238.39;;;7.21;86.47
23635;BME280;11994;51.038;16.974;2023-02-22T00:37:59;100239.61;;;7.20;86.43
23635;BME280;11994;51.038;16.974;2023-02-22T00:40:26;100237.02;;;7.17;86.58
23635;BME280;11994;51.038;16.974;2023-02-22T00:42:52;100239.85;;;7.14;86.55
23635;BME280;11994;51.038;16.974;2023-02-22T00:45:22;100245.43;;;7.11;86.74
23635;BME280;11994;51.038;16.974;2023-02-22T00:47:48;100246.16;;;7.08;86.74
23635;BME280;11994;51.038;16.974;2023-02-22T00:50:13;100244.92;;;7.09;86.80
23635;BME280;11994;51.038;16.974;2023-02-22T00:52:39;100246.48;;;7.10;86.78
23635;BME280;11994;51.038;16.974;2023-02-22T00:55:06;100249.13;;;7.07;86.70
23635;BME280;11994;51.038;16.974;2023-02-22T00:57:31;100244.64;;;7.02;86.61
23635;BME280;11994;51.038;16.974;2023-02-22T00:59:59;100245.19;;;7.02;86.56
23635;BME280;11994;51.038;16.974;2023-02-22T01:02:24;100242.59;;;6.99;86.63
23635;BME280;11994;51.038;16.974;2023-02-22T01:04:49;100246.96;;;6.95;86.48
23635;BME280;11994;51.038;16.974;2023-02-22T01:07:15;100253.62;;;6.90;86.68
23635;BME280;11994;51.038;16.974;2023-02-22T01:09:40;100248.05;;;6.91;86.75
23635;BME280;11994;51.038;16.974;2023-02-22T01:12:06;100249.05;;;6.93;86.74
23635;BME280;11994;51.038;16.974;2023-02-22T01:14:32;100246.95;;;6.96;86.85
23635;BME280;11994;51.038;16.974;2023-02-22T01:16:57;100243.97;;;6.99;86.76
23635;BME280;11994;51.038;16.974;2023-02-22T01:19:22;100243.08;;;7.02;86.87
23635;BME280;11994;51.038;16.974;2023-02-22T01:21:48;100244.46;;;7.03;86.83
23635;BME280;11994;51.038;16.974;2023-02-22T01:24:14;100242.55;;;7.03;86.77
23635;BME280;11994;51.038;16.974;2023-02-22T01:26:43;100241.85;;;7.03;86.70
23635;BME280;11994;51.038;16.974;2023-02-22T01:29:13;100242.92;;;7.01;86.62
23635;BME280;11994;51.038;16.974;2023-02-22T01:31:40;100246.92;;;6.99;86.58
23635;BME280;11994;51.038;16.974;2023-02-22T01:34:05;100246.60;;;6.97;86.47
23635;BME280;11994;51.038;16.974;2023-02-22T01:36:30;100246.77;;;6.97;86.46
23635;BME280;11994;51.038;16.974;2023-02-22T01:38:55;100246.27;;;6.94;86.40
23635;BME280;11994;51.038;16.974;2023-02-22T01:41:21;100248.90;;;6.92;86.35
23635;BME280;11994;51.038;16.974;2023-02-22T01:43:46;100246.84;;;6.90;86.27
23635;BME280;11994;51.038;16.974;2023-02-22T01:49:02;100254.02;;;6.84;86.26
23635;BME280;11994;51.038;16.974;2023-02-22T01:51:33;100249.34;;;6.81;86.27
23635;BME280;11994;51.038;16.974;2023-02-22T01:56:33;100244.51;;;6.77;86.14
23635;BME280;11994;51.038;16.974;2023-02-22T01:59:01;100245.91;;;6.75;86.28
23635;BME280;11994;51.038;16.974;2023-02-22T02:01:27;100245.76;;;6.73;86.24
23635;BME280;11994;51.038;16.974;2023-02-22T02:03:57;100244.35;;;6.74;86.15
23635;BME280;11994;51.038;16.974;2023-02-22T02:06:23;100241.41;;;6.73;86.12
23635;BME280;11994;51.038;16.974;2023-02-22T02:11:24;100244.34;;;6.77;86.08
23635;BME280;11994;51.038;16.974;2023-02-22T02:13:50;100243.97;;;6.79;86.14
23635;BME280;11994;51.038;16.974;2023-02-22T02:16:16;100239.61;;;6.80;86.07
23635;BME280;11994;51.038;16.974;2023-02-22T02:18:42;100243.09;;;6.79;86.05
23635;BME280;11994;51.038;16.974;2023-02-22T02:21:15;100239.31;;;6.76;85.95
23635;BME280;11994;51.038;16.974;2023-02-22T02:28:59;100242.46;;;6.71;85.65
23635;BME280;11994;51.038;16.974;2023-02-22T02:34:00;100242.34;;;6.67;85.63
23635;BME280;11994;51.038;16.974;2023-02-22T02:38:57;100241.14;;;6.61;85.49
23635;BME280;11994;51.038;16.974;2023-02-22T02:41:25;100239.95;;;6.60;85.57
23635;BME280;11994;51.038;16.974;2023-02-22T02:44:03;100243.05;;;6.61;85.49
23635;BME280;11994;51.038;16.974;2023-02-22T02:46:37;100242.33;;;6.66;85.56
23635;BME280;11994;51.038;16.974;2023-02-22T02:49:08;100236.04;;;6.71;85.48
23635;BME280;11994;51.038;16.974;2023-02-22T02:51:39;100237.56;;;6.76;85.48
23635;BME280;11994;51.038;16.974;2023-02-22T02:54:05;100238.73;;;6.80;85.41
23635;BME280;11994;51.038;16.974;2023-02-22T02:56:32;100238.03;;;6.83;85.26
23635;BME280;11994;51.038;16.974;2023-02-22T02:58:57;100232.08;;;6.88;85.29
23635;BME280;11994;51.038;16.974;2023-02-22T03:04:04;100231.34;;;6.92;85.02
23635;BME280;11994;51.038;16.974;2023-02-22T03:11:50;100239.04;;;6.86;84.46
23635;BME280;11994;51.038;16.974;2023-02-22T03:15:11;100241.31;;;6.85;84.48
23635;BME280;11994;51.038;16.974;2023-02-22T03:17:20;100240.77;;;6.86;84.29
23635;BME280;11994;51.038;16.974;2023-02-22T03:19:49;100240.09;;;6.85;84.31
23635;BME280;11994;51.038;16.974;2023-02-22T03:22:21;100242.02;;;6.84;84.22
23635;BME280;11994;51.038;16.974;2023-02-22T03:27:22;100243.41;;;6.85;84.12
23635;BME280;11994;51.038;16.974;2023-02-22T03:29:49;100246.33;;;6.87;84.19
23635;BME280;11994;51.038;16.974;2023-02-22T03:32:16;100242.33;;;6.87;84.07
23635;BME280;11994;51.038;16.974;2023-02-22T03:34:48;100246.17;;;6.85;83.92
23635;BME280;11994;51.038;16.974;2023-02-22T03:37:18;100246.88;;;6.84;84.04
23635;BME280;11994;51.038;16.974;2023-02-22T03:39:46;100244.08;;;6.86;83.96
23635;BME280;11994;51.038;16.974;2023-02-22T03:42:23;100241.80;;;6.90;84.03
23635;BME280;11994;51.038;16.974;2023-02-22T03:44:51;100239.64;;;6.98;84.03
23635;BME280;11994;51.038;16.974;2023-02-22T03:47:19;100240.63;;;7.03;84.09
23635;BME280;11994;51.038;16.974;2023-02-22T03:49:54;100243.20;;;7.09;84.12
23635;BME280;11994;51.038;16.974;2023-02-22T03:52:21;100246.28;;;7.14;83.93
23635;BME280;11994;51.038;16.974;2023-02-22T03:54:48;100247.30;;;7.16;83.75
23635;BME280;11994;51.038;16.974;2023-02-22T03:57:18;100248.69;;;7.16;83.63
23635;BME280;11994;51.038;16.974;2023-02-22T03:59:45;100247.66;;;7.17;83.62
23635;BME280;11994;51.038;16.974;2023-02-22T04:02:10;100253.36;;;7.19;83.77
23635;BME280;11994;51.038;16.974;2023-02-22T04:04:35;100254.39;;;7.21;83.67
23635;BME280;11994;51.038;16.974;2023-02-22T04:07:00;100256.30;;;7.19;83.63
23635;BME280;11994;51.038;16.974;2023-02-22T04:09:26;100251.27;;;7.18;83.68
23635;BME280;11994;51.038;16.974;2023-02-22T04:11:51;100253.88;;;7.19;83.91
23635;BME280;11994;51.038;16.974;2023-02-22T04:14:16;100256.48;;;7.21;83.94
23635;BME280;11994;51.038;16.974;2023-02-22T04:16:41;100257.02;;;7.18;83.85
23635;BME280;11994;51.038;16.974;2023-02-22T04:19:07;100255.33;;;7.14;83.94
23635;BME280;11994;51.038;16.974;2023-02-22T04:21:32;100253.24;;;7.13;84.13
23635;BME280;11994;51.038;16.974;2023-02-22T04:23:58;100249.95;;;7.12;84.17
23635;BME280;11994;51.038;16.974;2023-02-22T04:26:23;100249.24;;;7.13;84.28
23635;BME280;11994;51.038;16.974;2023-02-22T04:28:48;100250.83;;;7.12;84.28
23635;BME280;11994;51.038;16.974;2023-02-22T04:31:14;100254.64;;;7.11;84.48
23635;BME280;11994;51.038;16.974;2023-02-22T04:33:39;100251.52;;;7.10;84.55
23635;BME280;11994;51.038;16.974;2023-02-22T04:36:04;100247.20;;;7.08;84.56
23635;BME280;11994;51.038;16.974;2023-02-22T04:38:30;100251.73;;;7.06;84.65
23635;BME280;11994;51.038;16.974;2023-02-22T04:40:55;100249.48;;;7.05;84.65
23635;BME280;11994;51.038;16.974;2023-02-22T04:43:20;100249.66;;;7.05;84.91
23635;BME280;11994;51.038;16.974;2023-02-22T04:45:46;100246.52;;;7.04;84.85
23635;BME280;11994;51.038;16.974;2023-02-22T04:48:11;100244.27;;;7.04;84.96
23635;BME280;11994;51.038;16.974;2023-02-22T04:50:36;100246.56;;;7.03;85.05
23635;BME280;11994;51.038;16.974;2023-02-22T04:53:02;100244.64;;;7.03;85.28
23635;BME280;11994;51.038;16.974;2023-02-22T04:55:27;100243.76;;;7.04;85.36
23635;BME280;11994;51.038;16.974;2023-02-22T04:57:53;100240.11;;;7.03;85.49
23635;BME280;11994;51.038;16.974;2023-02-22T05:00:19;100236.63;;;7.04;85.42
23635;BME280;11994;51.038;16.974;2023-02-22T05:02:45;100234.02;;;7.04;85.53
23635;BME280;11994;51.038;16.974;2023-02-22T05:05:12;100234.19;;;7.04;85.75
23635;BME280;11994;51.038;16.974;2023-02-22T05:07:37;100234.55;;;7.03;85.84
23635;BME280;11994;51.038;16.974;2023-02-22T05:10:02;100235.75;;;7.04;85.96
23635;BME280;11994;51.038;16.974;2023-02-22T05:12:28;100231.42;;;7.03;85.96
23635;BME280;11994;51.038;16.974;2023-02-22T05:14:53;100231.05;;;7.07;86.10
23635;BME280;11994;51.038;16.974;2023-02-22T05:17:18;100233.45;;;7.10;86.12
23635;BME280;11994;51.038;16.974;2023-02-22T05:19:43;100234.80;;;7.14;86.09
23635;BME280;11994;51.038;16.974;2023-02-22T05:22:09;100237.35;;;7.20;86.21
23635;BME280;11994;51.038;16.974;2023-02-22T05:24:34;100233.30;;;7.25;86.09
23635;BME280;11994;51.038;16.974;2023-02-22T05:26:59;100236.40;;;7.27;86.07
23635;BME280;11994;51.038;16.974;2023-02-22T05:29:25;100229.61;;;7.29;86.19
23635;BME280;11994;51.038;16.974;2023-02-22T05:31:50;100234.11;;;7.31;86.00
23635;BME280;11994;51.038;16.974;2023-02-22T05:34:15;100230.81;;;7.31;86.08
23635;BME280;11994;51.038;16.974;2023-02-22T05:36:40;100232.02;;;7.31;86.02
23635;BME280;11994;51.038;16.974;2023-02-22T05:39:06;100235.31;;;7.33;86.22
23635;BME280;11994;51.038;16.974;2023-02-22T05:41:31;100239.29;;;7.35;86.19
23635;BME280;11994;51.038;16.974;2023-02-22T05:43:56;100239.15;;;7.31;86.04
23635;BME280;11994;51.038;16.974;2023-02-22T05:46:21;100238.50;;;7.27;86.08
23635;BME280;11994;51.038;16.974;2023-02-22T05:48:47;100240.59;;;7.27;86.17
23635;BME280;11994;51.038;16.974;2023-02-22T05:51:12;100244.63;;;7.24;86.07
23635;BME280;11994;51.038;16.974;2023-02-22T05:53:37;100243.77;;;7.21;86.09
23635;BME280;11994;51.038;16.974;2023-02-22T05:56:02;100250.93;;;7.18;86.10
23635;BME280;11994;51.038;16.974;2023-02-22T05:58:28;100250.80;;;7.15;86.19
23635;BME280;11994;51.038;16.974;2023-02-22T06:00:53;100251.50;;;7.13;86.35
23635;BME280;11994;51.038;16.974;2023-02-22T06:03:18;100250.83;;;7.10;86.28
23635;BME280;11994;51.038;16.974;2023-02-22T06:05:43;100253.30;;;7.08;86.49
23635;BME280;11994;51.038;16.974;2023-02-22T06:08:09;100254.17;;;7.07;86.54
23635;BME280;11994;51.038;16.974;2023-02-22T06:10:34;100255.58;;;7.05;86.57
23635;BME280;11994;51.038;16.974;2023-02-22T06:13:00;100256.45;;;7.04;86.70
23635;BME280;11994;51.038;16.974;2023-02-22T06:15:26;100255.75;;;7.04;86.87
23635;BME280;11994;51.038;16.974;2023-02-22T06:17:52;100259.05;;;7.05;86.85
23635;BME280;11994;51.038;16.974;2023-02-22T06:20:18;100262.88;;;7.05;86.91
23635;BME280;11994;51.038;16.974;2023-02-22T06:22:47;100260.10;;;7.06;86.92
23635;BME280;11994;51.038;16.974;2023-02-22T06:25:13;100255.57;;;7.05;86.98
23635;BME280;11994;51.038;16.974;2023-02-22T06:27:40;100266.70;;;7.06;87.11
23635;BME280;11994;51.038;16.974;2023-02-22T06:30:05;100265.46;;;7.08;86.95
23635;BME280;11994;51.038;16.974;2023-02-22T06:32:31;100267.02;;;7.09;87.18
23635;BME280;11994;51.038;16.974;2023-02-22T06:34:56;100268.56;;;7.10;87.20
23635;BME280;11994;51.038;16.974;2023-02-22T06:37:21;100269.41;;;7.14;87.12
23635;BME280;11994;51.038;16.974;2023-02-22T06:39:46;100273.89;;;7.19;87.31
23635;BME280;11994;51.038;16.974;2023-02-22T06:42:12;100278.50;;;7.27;87.44
23635;BME280;11994;51.038;16.974;2023-02-22T06:44:38;100283.83;;;7.36;87.59
23635;BME280;11994;51.038;16.974;2023-02-22T06:47:03;100286.13;;;7.48;87.79
23635;BME280;11994;51.038;16.974;2023-02-22T06:49:28;100287.27;;;7.55;87.58
23635;BME280;11994;51.038;16.974;2023-02-22T06:51:54;100293.84;;;7.61;87.57
23635;BME280;11994;51.038;16.974;2023-02-22T06:54:19;100296.32;;;7.57;87.03
23635;BME280;11994;51.038;16.974;2023-02-22T06:56:45;100298.30;;;7.49;86.76
23635;BME280;11994;51.038;16.974;2023-02-22T06:59:10;100300.11;;;7.42;86.61
23635;BME280;11994;51.038;16.974;2023-02-22T07:01:35;100301.05;;;7.34;86.66
23635;BME280;11994;51.038;16.974;2023-02-22T07:04:01;100303.21;;;7.27;86.72
23635;BME280;11994;51.038;16.974;2023-02-22T07:06:26;100304.10;;;7.25;86.81
23635;BME280;11994;51.038;16.974;2023-02-22T07:08:52;100308.63;;;7.23;86.99
23635;BME280;11994;51.038;16.974;2023-02-22T07:11:17;100310.55;;;7.23;87.18
23635;BME280;11994;51.038;16.974;2023-02-22T07:13:42;100312.98;;;7.25;87.26
23635;BME280;11994;51.038;16.974;2023-02-22T07:16:07;100311.37;;;7.28;87.38
23635;BME280;11994;51.038;16.974;2023-02-22T07:18:33;100315.36;;;7.29;87.44
23635;BME280;11994;51.038;16.974;2023-02-22T07:20:58;100319.17;;;7.30;87.68
23635;BME280;11994;51.038;16.974;2023-02-22T07:23:23;100318.46;;;7.34;87.73
23635;BME280;11994;51.038;16.974;2023-02-22T07:25:49;100317.21;;;7.37;87.82
23635;BME280;11994;51.038;16.974;2023-02-22T07:28:14;100321.73;;;7.39;87.66
23635;BME280;11994;51.038;16.974;2023-02-22T07:30:39;100322.58;;;7.40;87.78
23635;BME280;11994;51.038;16.974;2023-02-22T07:33:06;100324.45;;;7.44;87.83
23635;BME280;11994;51.038;16.974;2023-02-22T07:35:36;100320.80;;;7.45;87.74
23635;BME280;11994;51.038;16.974;2023-02-22T07:38:02;100319.73;;;7.47;87.65
23635;BME280;11994;51.038;16.974;2023-02-22T07:40:27;100320.08;;;7.47;87.62
23635;BME280;11994;51.038;16.974;2023-02-22T07:45:18;100325.23;;;7.55;87.61
23635;BME280;11994;51.038;16.974;2023-02-22T07:47:47;100327.05;;;7.64;87.79
23635;BME280;11994;51.038;16.974;2023-02-22T07:50:15;100328.34;;;7.75;87.94
23635;BME280;11994;51.038;16.974;2023-02-22T07:52:47;100327.88;;;7.84;87.92
23635;BME280;11994;51.038;16.974;2023-02-22T07:55:15;100328.88;;;7.89;87.66
23635;BME280;11994;51.038;16.974;2023-02-22T07:57:41;100329.59;;;7.88;87.51
23635;BME280;11994;51.038;16.974;2023-02-22T08:00:06;100327.41;;;7.95;87.82
23635;BME280;11994;51.038;16.974;2023-02-22T08:02:32;100325.59;;;8.02;87.60
23635;BME280;11994;51.038;16.974;2023-02-22T08:04:57;100326.51;;;7.98;87.32
23635;BME280;11994;51.038;16.974;2023-02-22T08:07:22;100328.80;;;7.96;87.12
23635;BME280;11994;51.038;16.974;2023-02-22T08:09:47;100329.31;;;7.96;87.08
23635;BME280;11994;51.038;16.974;2023-02-22T08:12:13;100332.82;;;7.94;86.76
23635;BME280;11994;51.038;16.974;2023-02-22T08:14:38;100330.92;;;7.93;86.77
23635;BME280;11994;51.038;16.974;2023-02-22T08:17:03;100334.05;;;7.93;86.76
23635;BME280;11994;51.038;16.974;2023-02-22T08:19:28;100330.02;;;7.95;86.68
23635;BME280;11994;51.038;16.974;2023-02-22T08:21:54;100331.41;;;7.96;86.53
23635;BME280;11994;51.038;16.974;2023-02-22T08:24:19;100329.85;;;7.96;86.21
23635;BME280;11994;51.038;16.974;2023-02-22T08:26:45;100331.74;;;7.98;86.15
23635;BME280;11994;51.038;16.974;2023-02-22T08:29:10;100330.13;;;8.02;86.05
23635;BME280;11994;51.038;16.974;2023-02-22T08:31:36;100327.34;;;8.03;85.80
23635;BME280;11994;51.038;16.974;2023-02-22T08:34:01;100331.70;;;8.03;85.75
23635;BME280;11994;51.038;16.974;2023-02-22T08:36:27;100327.01;;;8.01;85.74
23635;BME280;11994;51.038;16.974;2023-02-22T08:38:53;100327.31;;;8.04;85.93
23635;BME280;11994;51.038;16.974;2023-02-22T08:41:18;100324.84;;;8.08;85.84
23635;BME280;11994;51.038;16.974;2023-02-22T08:43:43;100322.23;;;8.08;85.62
23635;BME280;11994;51.038;16.974;2023-02-22T08:46:09;100322.53;;;8.10;85.51
23635;BME280;11994;51.038;16.974;2023-02-22T08:48:34;100319.70;;;8.14;85.53
23635;BME280;11994;51.038;16.974;2023-02-22T08:50:59;100317.07;;;8.17;85.43
23635;BME280;11994;51.038;16.974;2023-02-22T08:53:25;100318.15;;;8.14;84.90
23635;BME280;11994;51.038;16.974;2023-02-22T08:55:50;100312.75;;;8.14;84.84
23635;BME280;11994;51.038;16.974;2023-02-22T08:58:16;100313.60;;;8.15;84.41
23635;BME280;11994;51.038;16.974;2023-02-22T09:00:41;100315.54;;;8.14;84.46
23635;BME280;11994;51.038;16.974;2023-02-22T09:03:09;100314.96;;;8.18;84.50
23635;BME280;11994;51.038;16.974;2023-02-22T09:05:35;100314.59;;;8.22;84.31
23635;BME280;11994;51.038;16.974;2023-02-22T09:08:01;100318.20;;;8.27;84.32
23635;BME280;11994;51.038;16.974;2023-02-22T09:10:28;100315.88;;;8.32;84.17
23635;BME280;11994;51.038;16.974;2023-02-22T09:12:54;100314.41;;;8.36;84.04
23635;BME280;11994;51.038;16.974;2023-02-22T09:15:19;100312.77;;;8.41;83.35
23635;BME280;11994;51.038;16.974;2023-02-22T09:17:45;100318.34;;;8.43;82.86
23635;BME280;11994;51.038;16.974;2023-02-22T09:20:10;100314.45;;;8.46;82.63
23635;BME280;11994;51.038;16.974;2023-02-22T09:22:36;100316.02;;;8.47;82.43
23635;BME280;11994;51.038;16.974;2023-02-22T09:25:02;100318.28;;;8.47;82.30
23635;BME280;11994;51.038;16.974;2023-02-22T09:27:27;100317.38;;;8.50;82.30
23635;BME280;11994;51.038;16.974;2023-02-22T09:29:53;100318.89;;;8.53;82.08
23635;BME280;11994;51.038;16.974;2023-02-22T09:32:18;100320.27;;;8.55;81.80
23635;BME280;11994;51.038;16.974;2023-02-22T09:34:45;100315.75;;;8.55;81.56
23635;BME280;11994;51.038;16.974;2023-02-22T09:37:10;100318.88;;;8.55;81.52
23635;BME280;11994;51.038;16.974;2023-02-22T09:39:36;100317.48;;;8.53;81.48
23635;BME280;11994;51.038;16.974;2023-02-22T09:42:15;100314.16;;;8.55;81.48
23635;BME280;11994;51.038;16.974;2023-02-22T09:44:46;100312.67;;;8.61;81.51
23635;BME280;11994;51.038;16.974;2023-02-22T09:47:13;100307.20;;;8.67;81.56
23635;BME280;11994;51.038;16.974;2023-02-22T09:49:41;100312.86;;;8.73;81.59
23635;BME280;11994;51.038;16.974;2023-02-22T09:57:40;100312.99;;;8.76;80.63
23635;BME280;11994;51.038;16.974;2023-02-22T10:00:14;100311.39;;;8.78;80.71
23635;BME280;11994;51.038;16.974;2023-02-22T10:02:49;100311.64;;;8.84;81.01
23635;BME280;11994;51.038;16.974;2023-02-22T10:07:54;100310.92;;;8.97;81.07
23635;BME280;11994;51.038;16.974;2023-02-22T10:10:22;100306.23;;;9.08;81.17
23635;BME280;11994;51.038;16.974;2023-02-22T10:26:13;100300.25;;;9.10;79.72
23635;BME280;11994;51.038;16.974;2023-02-22T10:28:41;100301.56;;;9.15;79.83
23635;BME280;11994;51.038;16.974;2023-02-22T10:31:08;100301.69;;;9.19;79.48
23635;BME280;11994;51.038;16.974;2023-02-22T10:33:41;100302.84;;;9.23;79.28
23635;BME280;11994;51.038;16.974;2023-02-22T10:36:20;100304.22;;;9.24;79.18
23635;BME280;11994;51.038;16.974;2023-02-22T10:39:32;100303.49;;;9.25;78.84
23635;BME280;11994;51.038;16.974;2023-02-22T10:41:35;100302.94;;;9.27;78.67
23635;BME280;11994;51.038;16.974;2023-02-22T10:44:04;100298.21;;;9.28;78.72
23635;BME280;11994;51.038;16.974;2023-02-22T10:46:29;100299.40;;;9.30;78.43
23635;BME280;11994;51.038;16.974;2023-02-22T10:48:56;100296.75;;;9.32;78.56
23635;BME280;11994;51.038;16.974;2023-02-22T10:51:26;100297.33;;;9.29;78.31
23635;BME280;11994;51.038;16.974;2023-02-22T10:53:55;100296.59;;;9.32;78.36
23635;BME280;11994;51.038;16.974;2023-02-22T10:56:22;100292.67;;;9.35;78.26
23635;BME280;11994;51.038;16.974;2023-02-22T11:03:57;100289.36;;;9.34;77.59
23635;BME280;11994;51.038;16.974;2023-02-22T11:06:23;100286.25;;;9.34;77.40
23635;BME280;11994;51.038;16.974;2023-02-22T11:08:49;100286.82;;;9.31;76.94
23635;BME280;11994;51.038;16.974;2023-02-22T11:11:25;100281.66;;;9.27;76.80
23635;BME280;11994;51.038;16.974;2023-02-22T11:13:55;100280.98;;;9.25;76.87
23635;BME280;11994;51.038;16.974;2023-02-22T11:16:25;100280.48;;;9.24;76.60
23635;BME280;11994;51.038;16.974;2023-02-22T11:18:58;100278.90;;;9.24;76.77
23635;BME280;11994;51.038;16.974;2023-02-22T11:21:24;100279.54;;;9.28;77.17
23635;BME280;11994;51.038;16.974;2023-02-22T11:23:50;100275.29;;;9.31;77.54
23635;BME280;11994;51.038;16.974;2023-02-22T11:26:25;100273.69;;;9.33;77.60
23635;BME280;11994;51.038;16.974;2023-02-22T11:28:50;100277.14;;;9.35;77.33
23635;BME280;11994;51.038;16.974;2023-02-22T11:31:26;100275.36;;;9.37;77.21
23635;BME280;11994;51.038;16.974;2023-02-22T11:36:31;100271.46;;;9.41;77.01
23635;BME280;11994;51.038;16.974;2023-02-22T11:38:57;100268.69;;;9.49;77.19
23635;BME280;11994;51.038;16.974;2023-02-22T11:41:28;100269.26;;;9.56;76.98
23635;BME280;11994;51.038;16.974;2023-02-22T11:43:54;100270.39;;;9.61;76.91
23635;BME280;11994;51.038;16.974;2023-02-22T11:46:35;100274.69;;;9.64;76.60
23635;BME280;11994;51.038;16.974;2023-02-22T11:49:05;100272.52;;;9.69;76.75
23635;BME280;11994;51.038;16.974;2023-02-22T11:56:49;100265.86;;;9.79;75.83
23635;BME280;11994;51.038;16.974;2023-02-22T11:59:23;100267.11;;;9.77;75.16
23635;BME280;11994;51.038;16.974;2023-02-22T12:02:04;100264.41;;;9.72;74.95
23635;BME280;11994;51.038;16.974;2023-02-22T12:04:49;100262.89;;;9.70;74.84
23635;BME280;11994;51.038;16.974;2023-02-22T12:07:25;100260.66;;;9.68;74.79
23635;BME280;11994;51.038;16.974;2023-02-22T12:14:59;100257.08;;;9.81;75.67
23635;BME280;11994;51.038;16.974;2023-02-22T12:17:39;100260.45;;;9.88;76.09
23635;BME280;11994;51.038;16.974;2023-02-22T12:20:22;100261.70;;;9.86;75.75
23635;BME280;11994;51.038;16.974;2023-02-22T12:25:30;100262.98;;;9.84;75.86
23635;BME280;11994;51.038;16.974;2023-02-22T12:28:19;100258.16;;;9.79;75.58
23635;BME280;11994;51.038;16.974;2023-02-22T12:30:43;100260.27;;;9.78;75.92
23635;BME280;11994;51.038;16.974;2023-02-22T12:33:12;100262.71;;;9.78;75.55
23635;BME280;11994;51.038;16.974;2023-02-22T12:35:41;100263.34;;;9.74;75.47
23635;BME280;11994;51.038;16.974;2023-02-22T12:38:20;100262.64;;;9.74;75.41
23635;BME280;11994;51.038;16.974;2023-02-22T12:45:50;100259.52;;;9.64;74.96
23635;BME280;11994;51.038;16.974;2023-02-22T12:50:45;100255.59;;;9.68;75.62
23635;BME280;11994;51.038;16.974;2023-02-22T12:53:16;100256.73;;;9.64;75.29
23635;BME280;11994;51.038;16.974;2023-02-22T13:03:27;100255.99;;;9.74;75.45
23635;BME280;11994;51.038;16.974;2023-02-22T13:19:10;100242.83;;;9.94;74.60
23635;BME280;11994;51.038;16.974;2023-02-22T13:24:22;100239.47;;;9.80;74.05
23635;BME280;11994;51.038;16.974;2023-02-22T13:26:53;100241.02;;;9.80;74.26
23635;BME280;11994;51.038;16.974;2023-02-22T13:29:23;100241.27;;;9.85;74.52
23635;BME280;11994;51.038;16.974;2023-02-22T13:37:18;100246.20;;;9.83;74.20
23635;BME280;11994;51.038;16.974;2023-02-22T13:42:40;100243.39;;;9.84;74.21
23635;BME280;11994;51.038;16.974;2023-02-22T13:52:47;100245.35;;;9.82;73.68
23635;BME280;11994;51.038;16.974;2023-02-22T13:55:20;100244.44;;;9.84;73.84
23635;BME280;11994;51.038;16.974;2023-02-22T13:57:50;100244.90;;;9.87;73.76
23635;BME280;11994;51.038;16.974;2023-02-22T14:00:37;100243.37;;;9.94;73.97
23635;BME280;11994;51.038;16.974;2023-02-22T14:08:05;100244.90;;;10.05;73.87
23635;BME280;11994;51.038;16.974;2023-02-22T14:10:38;100239.52;;;10.04;73.76
23635;BME280;11994;51.038;16.974;2023-02-22T14:13:08;100235.66;;;10.03;73.81
23635;BME280;11994;51.038;16.974;2023-02-22T14:15:33;100233.80;;;10.00;73.40
23635;BME280;11994;51.038;16.974;2023-02-22T14:20:32;100231.66;;;9.86;72.99
23635;BME280;11994;51.038;16.974;2023-02-22T14:25:54;100227.73;;;9.72;72.84
23635;BME280;11994;51.038;16.974;2023-02-22T14:29:21;100226.77;;;9.68;72.81
23635;BME280;11994;51.038;16.974;2023-02-22T14:31:16;100234.49;;;9.66;72.84
23635;BME280;11994;51.038;16.974;2023-02-22T14:36:43;100239.45;;;9.63;72.79
23635;BME280;11994;51.038;16.974;2023-02-22T14:39:30;100236.52;;;9.61;72.73
23635;BME280;11994;51.038;16.974;2023-02-22T14:44:27;100238.34;;;9.66;72.67
23635;BME280;11994;51.038;16.974;2023-02-22T14:46:54;100238.59;;;9.71;72.78
23635;BME280;11994;51.038;16.974;2023-02-22T14:49:21;100234.20;;;9.72;72.71
23635;BME280;11994;51.038;16.974;2023-02-22T14:51:54;100235.80;;;9.71;72.21
23635;BME280;11994;51.038;16.974;2023-02-22T14:54:26;100233.23;;;9.68;71.83
23635;BME280;11994;51.038;16.974;2023-02-22T14:56:57;100236.98;;;9.63;71.31
23635;BME280;11994;51.038;16.974;2023-02-22T14:59:36;100231.83;;;9.59;71.65
23635;BME280;11994;51.038;16.974;2023-02-22T15:02:11;100229.78;;;9.57;71.50
23635;BME280;11994;51.038;16.974;2023-02-22T15:04:37;100233.49;;;9.55;71.29
23635;BME280;11994;51.038;16.974;2023-02-22T15:07:07;100228.86;;;9.50;71.30
23635;BME280;11994;51.038;16.974;2023-02-22T15:09:33;100233.98;;;9.47;70.45